Terminal Aerodrome Forecast
Issued by NWS Sioux Falls, SD

Home | Current Version | Previous Version | Graphics & Text | Print | Product List | Glossary On
Versions: 1 2 3 4 5 6 7 8 9 10 11
556
FTUS43 KFSD 291120
TAFFSD
TAF
KFSD 291120Z 2912/3012 03010KT P6SM SKC
     FM291500 05011G19KT P6SM BKN250
     FM301100 04012G21KT P6SM -RA OVC030=

USA.gov is the U.S. government's official web portal to all federal, state and local government web resources and services.